Terminal Aerodrome Forecast
Issued by NWS

Home | Current Version | Previous Version | Text Only | Print | Product List | Glossary On
Versions: 1 2 3 4 5 6 7 8 9 10 11 12 13 14 15 16 17 18 19 20 21 22 23 24 25 26 27 28 29 30 31 32 33 34
361
FTUS44 KOUN 291847 AAA
TAFLAW
TAF AMD
KLAW 291847Z 2919/3018 34010KT P6SM BKN018
     FM292300 31015G25KT P6SM BKN025
     FM300200 31010KT P6SM SCT025
     FM301400 31010G20KT P6SM FEW030=

USA.gov is the U.S. government's official web portal to all federal, state and local government web resources and services.